Terminal Aerodrome Forecast
Issued by NWS

Home | Current Version | Previous Version | Text Only | Print | Product List | Glossary On
Versions: 1 2 3 4 5 6 7 8 9 10 11 12 13 14 15 16
000
FTUS46 KSTO 172300
TAFSMF
TAF
KSMF 172323Z 1800/1824 16011KT P6SM VCSH SCT025 OVC050
     FM180300 15008KT P6SM -SHRA SCT025 OVC045
      TEMPO 1804/1808 4SM -RA BR OVC020
     FM181400 15006KT 3SM BR VCSH BKN010
     FM182000 16008KT P6SM BKN050=

USA.gov is the U.S. government's official web portal to all federal, state and local government web resources and services.